Аэропорт: Габала. Габала

ICAO: UBBQ

METAR:
2018/11/19 10:00
UBBQ 191000Z 30003KT 9999 BKN030 12/04 Q1024 R16/////// NOSIG RMK MT PT OBSC
METAR:
Информация по данной станции не доступна